Time;durP1;ratioP1;P1;durP2;ratioP2;P2;SDS_P1;SDS_P2;PMS_P1;PMS_P2;Temp;Humidity;BMP_temperature;BMP_pressure;BME280_temperature;BME280_humidity;BME280_pressure;Samples;Min_cycle;Max_cycle;Signal;HPM_P1;HPM_P2
2023/12/12 00:00:29;;;;;;;6.47;3.50;;;7.80;99.90;;;8.48;97.74;97420.84;10381927;28;20261;-69
2023/12/12 00:05:34;;;;;;;5.35;3.38;;;7.80;99.90;;;8.42;97.78;97423.03;10385628;28;20576;-68
2023/12/12 00:10:37;;;;;;;7.72;3.15;;;7.70;99.90;;;8.38;98.22;97427.81;10381484;28;20361;-66
2023/12/12 00:15:40;;;;;;;6.00;3.13;;;7.70;99.90;;;8.32;98.93;97429.22;10373164;28;20234;-68
2023/12/12 00:20:45;;;;;;;5.85;3.30;;;7.70;99.90;;;8.31;98.96;97430.00;10377780;28;20363;-68
2023/12/12 00:25:48;;;;;;;5.22;3.40;;;7.60;99.90;;;8.29;99.54;97440.91;10383458;28;20227;-68
2023/12/12 00:30:51;;;;;;;8.73;3.40;;;7.60;99.90;;;8.27;99.24;97434.81;10376292;28;20228;-68
2023/12/12 00:35:55;;;;;;;6.97;3.60;;;7.60;99.90;;;8.20;99.43;97430.19;10379287;28;20237;-68
2023/12/12 00:40:58;;;;;;;5.68;3.38;;;7.50;99.90;;;8.16;100.00;97438.44;10380662;28;20234;-68
2023/12/12 00:46:02;;;;;;;5.72;3.20;;;7.40;99.90;;;8.07;100.00;97437.09;10378533;28;20226;-68
2023/12/12 00:51:08;;;;;;;8.35;3.30;;;7.40;99.90;;;8.04;100.00;97436.00;10372334;28;20229;-68
2023/12/12 00:56:12;;;;;;;6.05;3.72;;;7.30;99.90;;;7.92;100.00;97436.16;10375536;28;20281;-66
2023/12/12 01:01:15;;;;;;;6.07;3.33;;;7.30;99.90;;;7.97;100.00;97434.78;10366562;28;20226;-68
2023/12/12 01:06:26;;;;;;;5.90;3.22;;;7.30;99.90;;;7.97;100.00;97439.88;10371879;28;20227;-68
2023/12/12 01:11:31;;;;;;;7.15;3.20;;;7.30;99.90;;;7.98;100.00;97441.59;10367697;28;20253;-70
2023/12/12 01:16:34;;;;;;;4.85;3.42;;;7.30;99.90;;;7.96;100.00;97438.13;10369237;28;20244;-68
2023/12/12 01:21:39;;;;;;;6.97;3.33;;;7.30;99.90;;;7.94;100.00;97433.72;10374073;28;21089;-68
2023/12/12 01:26:43;;;;;;;8.90;3.63;;;7.20;99.90;;;7.84;100.00;97442.44;10365027;28;20233;-69
2023/12/12 01:31:46;;;;;;;7.55;3.97;;;7.20;99.90;;;7.87;100.00;97440.13;10369960;28;20712;-70
2023/12/12 01:36:51;;;;;;;10.40;3.70;;;7.20;99.90;;;7.85;100.00;97446.75;10356231;28;20230;-69
2023/12/12 01:41:54;;;;;;;7.38;4.70;;;7.20;99.90;;;7.77;100.00;97433.56;10366583;28;20690;-68
2023/12/12 01:46:57;;;;;;;21.83;11.23;;;7.10;99.90;;;7.71;100.00;97435.75;10364821;28;20245;-68
2023/12/12 01:52:02;;;;;;;28.27;14.37;;;7.10;99.90;;;7.76;100.00;97429.28;10364220;28;20233;-69
2023/12/12 01:57:05;;;;;;;14.73;8.88;;;7.10;99.90;;;7.83;100.00;97416.13;10355189;28;20235;-68
2023/12/12 02:02:11;;;;;;;28.77;17.90;;;7.10;99.90;;;7.79;100.00;97398.06;10359956;28;20228;-65
2023/12/12 02:07:16;;;;;;;64.83;37.73;;;7.10;99.90;;;7.85;100.00;97406.06;10358546;28;20621;-68
2023/12/12 02:12:19;;;;;;;22.23;13.23;;;7.20;99.90;;;7.89;100.00;97415.63;10361177;28;20234;-68
2023/12/12 02:17:23;;;;;;;10.70;5.95;;;7.10;99.90;;;7.86;100.00;97387.44;10366833;28;20319;-65
2023/12/12 02:22:27;;;;;;;11.00;5.75;;;7.20;99.90;;;7.77;100.00;97389.44;10362375;28;20296;-72
2023/12/12 02:27:31;;;;;;;10.15;5.43;;;7.10;99.90;;;7.80;100.00;97404.91;10367405;28;20616;-68
2023/12/12 02:32:34;;;;;;;7.63;4.38;;;7.10;99.90;;;7.80;100.00;97399.81;10365666;28;20254;-67
2023/12/12 02:37:39;;;;;;;8.03;4.07;;;7.10;99.90;;;7.76;100.00;97382.63;10367503;28;20257;-67
2023/12/12 02:42:44;;;;;;;6.67;3.93;;;7.00;99.90;;;7.76;100.00;97367.34;10358287;28;20229;-67
2023/12/12 02:47:48;;;;;;;8.07;3.67;;;7.00;99.90;;;7.71;100.00;97361.09;10362191;28;20238;-69
2023/12/12 02:52:52;;;;;;;6.47;4.13;;;7.00;99.90;;;7.67;100.00;97386.34;10358673;28;20226;-67
2023/12/12 02:57:55;;;;;;;7.63;3.83;;;7.00;99.90;;;7.68;100.00;97388.09;10366468;28;20977;-68
2023/12/12 03:02:59;;;;;;;5.83;3.60;;;7.00;99.90;;;7.74;100.00;97381.63;10361544;28;20714;-67
2023/12/12 03:08:03;;;;;;;6.00;3.60;;;7.00;99.90;;;7.74;100.00;97376.56;10362061;28;20664;-67
2023/12/12 03:13:06;;;;;;;6.03;3.63;;;7.10;99.90;;;7.74;100.00;97389.28;10364442;28;20730;-67
2023/12/12 03:18:10;;;;;;;5.00;3.07;;;7.00;99.90;;;7.66;100.00;97389.66;10363907;28;20264;-68
2023/12/12 03:23:14;;;;;;;3.57;3.13;;;6.90;99.90;;;7.51;100.00;97385.34;10358793;28;20232;-67
2023/12/12 03:28:17;;;;;;;6.20;3.03;;;6.80;99.90;;;7.43;100.00;97378.09;10360584;28;20726;-69
2023/12/12 03:33:20;;;;;;;6.57;3.60;;;6.70;99.90;;;7.36;100.00;97380.19;10362962;28;20234;-71
2023/12/12 03:38:25;;;;;;;5.50;3.03;;;6.60;99.90;;;7.31;100.00;97373.94;10368857;28;20238;-68
2023/12/12 03:43:28;;;;;;;5.30;3.00;;;6.60;99.90;;;7.25;100.00;97364.28;10366424;28;20237;-67
2023/12/12 03:48:31;;;;;;;4.97;3.30;;;6.50;99.90;;;7.16;100.00;97353.56;10376267;28;20239;-69
2023/12/12 03:53:36;;;;;;;5.23;3.40;;;6.50;99.90;;;7.10;100.00;97366.75;10370289;28;20243;-68
2023/12/12 03:58:39;;;;;;;6.17;4.00;;;6.40;99.90;;;7.05;100.00;97379.94;10374536;28;20234;-68
2023/12/12 04:03:43;;;;;;;5.73;3.33;;;6.30;99.90;;;7.00;100.00;97370.38;10377214;28;20316;-69
2023/12/12 04:08:47;;;;;;;7.43;3.73;;;6.30;99.90;;;6.94;100.00;97374.19;10363768;28;20233;-68
2023/12/12 04:13:51;;;;;;;6.57;3.50;;;6.30;99.90;;;6.94;100.00;97364.91;10363722;28;20241;-68
2023/12/12 04:18:54;;;;;;;8.10;3.37;;;6.30;99.90;;;7.00;100.00;97354.25;10372376;28;20233;-68
2023/12/12 04:23:59;;;;;;;5.97;3.23;;;6.30;99.90;;;7.00;100.00;97349.16;10370891;28;20722;-69
2023/12/12 04:29:03;;;;;;;5.00;3.23;;;6.30;99.90;;;6.94;100.00;97339.50;10378371;28;20283;-68
2023/12/12 04:34:07;;;;;;;5.67;3.33;;;6.30;99.90;;;7.04;100.00;97320.66;10364854;28;20710;-69
2023/12/12 04:39:17;;;;;;;6.80;3.10;;;6.40;99.90;;;6.93;100.00;97329.25;10367281;28;20296;-68
2023/12/12 04:44:20;;;;;;;7.13;3.37;;;6.30;99.90;;;6.87;100.00;97329.75;10361329;28;20222;-68
2023/12/12 04:49:23;;;;;;;6.13;2.97;;;6.20;99.90;;;6.82;100.00;97322.63;10362465;28;20321;-68
2023/12/12 04:54:28;;;;;;;4.17;3.03;;;6.10;99.90;;;6.63;100.00;97331.59;10357359;28;20233;-68
2023/12/12 04:59:31;;;;;;;3.10;2.80;;;5.90;99.90;;;6.52;100.00;97320.78;10359634;28;20789;-66
2023/12/12 05:04:38;;;;;;;6.77;3.40;;;5.90;99.90;;;6.36;100.00;97324.78;10356011;28;20239;-68
2023/12/12 05:09:42;;;;;;;7.70;4.93;;;5.70;99.90;;;6.26;100.00;97311.47;10364164;28;20233;-68
2023/12/12 05:14:45;;;;;;;11.90;6.20;;;5.60;99.90;;;6.20;100.00;97318.72;10361502;28;20277;-70
2023/12/12 05:19:49;;;;;;;19.57;12.00;;;5.60;99.90;;;6.20;100.00;97308.56;10361520;28;20265;-71
2023/12/12 05:24:53;;;;;;;10.07;6.70;;;5.60;99.90;;;6.19;100.00;97321.16;10367389;28;20218;-71
2023/12/12 05:29:56;;;;;;;7.30;4.87;;;5.60;99.90;;;6.23;100.00;97329.06;10363411;28;20234;-70
2023/12/12 05:34:59;;;;;;;6.70;4.37;;;5.60;99.90;;;6.27;100.00;97325.94;10379369;28;20245;-71
2023/12/12 05:40:05;;;;;;;6.10;4.80;;;5.60;99.90;;;6.29;100.00;97306.59;10381122;28;20324;-72
2023/12/12 05:45:09;;;;;;;8.17;4.80;;;5.70;99.90;;;6.31;100.00;97317.75;10372307;28;20276;-70
2023/12/12 05:50:12;;;;;;;6.07;5.07;;;5.60;99.90;;;6.17;100.00;97318.50;10368216;28;20238;-70
2023/12/12 05:55:17;;;;;;;6.20;5.07;;;5.50;99.90;;;6.12;100.00;97319.00;10367260;28;20317;-70
2023/12/12 06:00:21;;;;;;;7.20;4.23;;;5.40;99.90;;;6.00;100.00;97303.84;10368230;28;20804;-69
2023/12/12 06:05:24;;;;;;;9.57;5.07;;;5.30;99.90;;;5.91;100.00;97295.63;10366364;28;20237;-69
2023/12/12 06:10:29;;;;;;;4.77;3.37;;;5.20;99.90;;;5.86;100.00;97298.72;10372558;28;20272;-70
2023/12/12 06:15:32;;;;;;;6.50;3.47;;;5.20;99.90;;;5.82;100.00;97304.38;10373323;28;20325;-71
2023/12/12 06:20:35;;;;;;;7.50;3.57;;;5.20;99.90;;;5.80;100.00;97308.44;10365386;28;20238;-70
2023/12/12 06:25:39;;;;;;;7.03;3.90;;;5.10;99.90;;;5.79;100.00;97323.59;10367089;28;20237;-70
2023/12/12 06:30:43;;;;;;;9.53;8.10;;;5.20;99.90;;;5.81;100.00;97327.97;10369124;28;20227;-69
2023/12/12 06:35:46;;;;;;;8.37;7.30;;;5.20;99.90;;;5.94;100.00;97318.66;10373006;28;20227;-69
2023/12/12 06:40:50;;;;;;;8.33;6.00;;;5.20;99.90;;;5.90;100.00;97317.56;10379146;28;20218;-67
2023/12/12 06:45:53;;;;;;;6.33;5.40;;;5.30;99.90;;;5.87;100.00;97330.03;10372845;28;20233;-67
2023/12/12 06:50:57;;;;;;;6.30;4.50;;;5.10;99.90;;;5.83;100.00;97316.25;10376001;28;20233;-68
2023/12/12 06:56:02;;;;;;;5.23;4.30;;;5.10;99.90;;;5.75;100.00;97292.06;10376821;28;20229;-67
2023/12/12 07:01:05;;;;;;;5.90;4.23;;;5.00;99.90;;;5.67;100.00;97285.63;10353932;28;20275;-68
2023/12/12 07:06:09;;;;;;;4.77;3.90;;;5.00;99.90;;;5.68;100.00;97273.81;10358400;28;20261;-69
2023/12/12 07:11:15;;;;;;;7.10;5.50;;;5.00;99.90;;;5.65;100.00;97265.22;10372658;28;20316;-69
2023/12/12 07:16:18;;;;;;;4.77;3.70;;;5.00;99.90;;;5.54;100.00;97271.22;10381678;28;20234;-68
2023/12/12 07:21:22;;;;;;;6.73;4.37;;;5.00;99.90;;;5.52;100.00;97282.94;10383670;28;20232;-69
2023/12/12 07:26:26;;;;;;;5.27;4.00;;;4.90;99.90;;;5.56;100.00;97277.28;10382438;28;20254;-70
2023/12/12 07:31:29;;;;;;;4.53;3.63;;;4.90;99.90;;;5.59;100.00;97284.22;10372736;28;20313;-68
2023/12/12 07:36:34;;;;;;;4.27;3.87;;;4.90;99.90;;;5.65;100.00;97284.63;10381803;28;20544;-69
2023/12/12 07:41:39;;;;;;;43.30;28.47;;;5.00;99.90;;;5.63;100.00;97284.50;10372770;28;20230;-70
2023/12/12 07:46:42;;;;;;;19.10;12.67;;;4.90;99.90;;;5.70;100.00;97284.94;10373397;28;20230;-67
2023/12/12 07:51:45;;;;;;;11.37;8.00;;;5.00;99.90;;;5.82;100.00;97299.28;10371490;28;20233;-69
2023/12/12 07:56:49;;;;;;;4.20;3.23;;;5.10;99.90;;;5.86;100.00;97265.75;10376622;28;20230;-68
2023/12/12 08:01:53;;;;;;;6.03;3.77;;;5.10;99.90;;;5.78;100.00;97264.38;10379319;28;20246;-67
2023/12/12 08:06:56;;;;;;;6.70;5.07;;;5.10;99.90;;;5.81;100.00;97259.50;10380005;28;20234;-69
2023/12/12 08:12:01;;;;;;;5.53;4.63;;;5.10;99.90;;;5.88;100.00;97264.19;10378557;28;20221;-68
2023/12/12 08:17:04;;;;;;;7.27;4.63;;;5.20;99.90;;;6.00;100.00;97269.22;10369679;28;20234;-69
2023/12/12 08:22:07;;;;;;;5.60;4.20;;;5.40;99.90;;;6.07;100.00;97271.38;10371870;28;20695;-70
2023/12/12 08:27:13;;;;;;;6.93;4.13;;;5.40;99.90;;;6.16;100.00;97278.69;10375105;28;20240;-69
2023/12/12 08:32:17;;;;;;;7.57;4.90;;;5.50;99.90;;;6.27;100.00;97269.25;10370613;28;20229;-68
2023/12/12 08:37:20;;;;;;;5.70;4.43;;;5.70;99.90;;;6.52;100.00;97236.13;10371372;28;20729;-70
2023/12/12 08:42:24;;;;;;;5.67;3.70;;;5.80;99.90;;;6.58;100.00;97236.53;10377272;28;20234;-70
2023/12/12 08:47:27;;;;;;;4.50;4.10;;;5.90;99.90;;;6.66;100.00;97229.34;10376536;28;20227;-67
2023/12/12 08:52:32;;;;;;;9.63;6.57;;;6.00;99.90;;;6.65;100.00;97187.88;10374448;28;20313;-69
2023/12/12 08:57:41;;;;;;;10.23;6.90;;;6.00;99.90;;;6.71;100.00;97167.91;10377224;28;20714;-68
2023/12/12 09:02:44;;;;;;;7.80;7.10;;;6.00;99.90;;;6.74;100.00;97185.00;10368986;28;20238;-69
2023/12/12 09:07:48;;;;;;;9.10;5.83;;;6.10;99.90;;;6.71;100.00;97167.91;10369993;28;20722;-69
2023/12/12 09:12:52;;;;;;;8.67;5.87;;;6.10;99.90;;;6.81;100.00;97178.63;10384069;28;20312;-69
2023/12/12 09:17:55;;;;;;;5.43;4.73;;;6.20;99.90;;;6.88;100.00;97186.72;10375173;28;20225;-68
2023/12/12 09:23:18;;;;;;;6.60;5.10;;;6.30;99.90;;;6.92;100.00;97177.59;10369460;28;20372;-68
2023/12/12 09:28:23;;;;;;;7.43;5.40;;;6.40;99.90;;;7.07;100.00;97186.16;10370651;28;20241;-69
2023/12/12 09:33:26;;;;;;;6.20;4.47;;;6.50;99.90;;;7.31;100.00;97168.06;10374409;28;20261;-68
2023/12/12 09:38:30;;;;;;;6.43;5.70;;;6.70;99.90;;;7.63;100.00;97178.41;10368424;28;20250;-69
2023/12/12 09:43:37;;;;;;;10.47;6.00;;;6.90;99.90;;;7.71;100.00;97181.38;10372491;28;20256;-69
2023/12/12 09:48:42;;;;;;;7.43;4.70;;;7.00;99.90;;;7.84;100.00;97148.22;10375396;28;20237;-69
2023/12/12 09:53:47;;;;;;;8.07;5.20;;;7.10;99.90;;;7.74;100.00;97145.06;10380809;28;20222;-68
2023/12/12 09:58:52;;;;;;;9.03;5.93;;;7.10;99.90;;;7.71;100.00;97134.75;10371500;28;20748;-68
2023/12/12 10:03:56;;;;;;;6.93;4.80;;;7.10;99.90;;;7.72;100.00;97121.22;10372999;28;20325;-69
2023/12/12 10:08:59;;;;;;;6.00;4.70;;;7.20;99.90;;;7.92;100.00;97118.09;10378100;28;20670;-72
2023/12/12 10:14:04;;;;;;;7.50;5.33;;;7.30;99.90;;;7.97;100.00;97103.97;10377791;28;20238;-68
2023/12/12 10:19:12;;;;;;;7.43;5.00;;;7.40;99.90;;;7.95;100.00;97089.41;10376804;28;20320;-69
2023/12/12 10:24:26;;;;;;;6.53;4.57;;;7.40;99.90;;;7.96;100.00;97081.88;10368230;28;20317;-69
2023/12/12 10:29:31;;;;;;;5.97;4.37;;;7.50;99.90;;;8.07;100.00;97082.47;10368621;28;20288;-69
2023/12/12 10:34:36;;;;;;;6.50;4.60;;;7.50;99.90;;;8.16;100.00;97074.44;10375130;28;20222;-68
2023/12/12 10:39:43;;;;;;;5.83;4.90;;;7.60;99.90;;;8.09;100.00;97065.59;10372771;28;20240;-69
2023/12/12 10:44:48;;;;;;;8.23;5.80;;;7.60;99.90;;;8.21;100.00;97055.19;10368174;28;20711;-67
2023/12/12 10:49:55;;;;;;;6.10;5.50;;;7.60;99.90;;;8.30;100.00;97042.97;10368193;28;20265;-69
2023/12/12 10:55:02;;;;;;;10.27;6.03;;;7.70;99.90;;;8.59;100.00;97036.00;10376875;28;20232;-67
2023/12/12 11:00:12;;;;;;;6.40;4.43;;;7.90;99.90;;;8.52;100.00;97032.22;10368100;28;20237;-67
2023/12/12 11:05:20;;;;;;;9.38;5.25;;;7.90;99.90;;;8.61;100.00;97027.59;10367686;28;20263;-68
2023/12/12 11:10:27;;;;;;;6.80;4.73;;;8.00;99.90;;;8.47;100.00;97016.72;10366419;28;20639;-68
2023/12/12 11:15:32;;;;;;;6.05;5.30;;;7.90;99.90;;;8.38;100.00;97006.00;10368875;28;20240;-68
2023/12/12 11:20:37;;;;;;;7.43;5.25;;;7.90;99.90;;;8.45;100.00;96995.41;10371114;28;20225;-67
2023/12/12 11:25:42;;;;;;;7.45;6.57;;;8.00;99.90;;;8.53;100.00;96988.16;10374290;28;20236;-67
2023/12/12 11:30:47;;;;;;;7.17;6.47;;;8.00;99.90;;;8.63;100.00;96961.47;10374193;28;20795;-69
2023/12/12 11:35:51;;;;;;;8.48;6.82;;;8.20;99.90;;;8.90;100.00;96960.28;10368368;28;20226;-68
2023/12/12 11:41:10;;;;;;;9.35;6.53;;;8.30;99.90;;;9.07;100.00;96939.81;10364849;28;20241;-67
2023/12/12 11:46:19;;;;;;;11.15;6.25;;;8.50;99.90;;;9.06;100.00;96943.19;10367964;28;20236;-67
2023/12/12 11:51:45;;;;;;;7.22;5.50;;;8.60;99.90;;;8.97;100.00;96931.75;10360848;28;20317;-68
2023/12/12 11:56:49;;;;;;;6.97;6.28;;;8.60;99.90;;;9.10;100.00;96925.56;10366428;28;20241;-68
2023/12/12 12:01:54;;;;;;;13.95;8.55;;;8.70;99.90;;;9.07;100.00;96905.03;10373012;28;20225;-68
2023/12/12 12:06:57;;;;;;;7.45;6.53;;;8.60;99.90;;;9.38;100.00;96892.00;10375120;28;20227;-68
2023/12/12 12:12:01;;;;;;;7.03;6.35;;;8.80;99.90;;;9.14;100.00;96880.69;10379011;28;20610;-68
2023/12/12 12:17:05;;;;;;;9.63;6.35;;;8.60;99.90;;;9.14;100.00;96860.28;10377549;28;20225;-68
2023/12/12 12:22:11;;;;;;;9.50;6.53;;;8.60;99.90;;;9.17;100.00;96855.34;10372770;28;20797;-68
2023/12/12 12:27:15;;;;;;;6.95;6.13;;;8.70;99.90;;;9.02;100.00;96852.97;10378953;28;20276;-67
2023/12/12 12:32:20;;;;;;;7.18;5.50;;;8.60;99.90;;;9.03;100.00;96835.16;10376668;28;20798;-66
2023/12/12 12:37:32;;;;;;;8.70;7.88;;;8.60;99.90;;;9.13;100.00;96851.78;10376744;28;20241;-66
2023/12/12 12:42:37;;;;;;;12.27;8.82;;;8.70;99.90;;;9.15;100.00;96846.75;10370407;28;20230;-67
2023/12/12 12:47:42;;;;;;;10.73;9.70;;;8.60;99.90;;;9.15;100.00;96823.78;10369568;28;20230;-69
2023/12/12 12:52:45;;;;;;;16.27;12.85;;;8.70;99.90;;;9.21;100.00;96807.13;10373956;28;20223;-66
2023/12/12 12:57:49;;;;;;;16.27;14.68;;;8.70;99.90;;;9.16;100.00;96805.16;10369420;28;20230;-69
2023/12/12 13:02:55;;;;;;;13.60;9.85;;;8.70;99.90;;;9.19;100.00;96783.22;10381467;28;20273;-67
2023/12/12 13:07:58;;;;;;;10.82;9.68;;;8.70;99.90;;;9.15;100.00;96771.13;10370767;28;20230;-68
2023/12/12 13:13:01;;;;;;;11.45;9.50;;;8.70;99.90;;;9.27;100.00;96754.63;10380284;28;20242;-68
2023/12/12 13:18:05;;;;;;;7.78;6.97;;;8.80;99.90;;;9.24;100.00;96747.72;10372772;28;20229;-70
2023/12/12 13:23:09;;;;;;;6.10;5.50;;;8.80;99.90;;;9.19;100.00;96769.63;10371204;28;20253;-68
2023/12/12 13:28:12;;;;;;;5.28;4.70;;;8.80;99.90;;;9.26;100.00;96763.97;10377780;28;20238;-69
2023/12/12 13:33:17;;;;;;;2.97;2.63;;;8.90;99.90;;;9.44;100.00;96795.41;10375163;28;20240;-68
2023/12/12 13:38:20;;;;;;;3.08;2.88;;;9.10;99.90;;;9.68;100.00;96779.41;10369925;28;20292;-70
2023/12/12 13:43:23;;;;;;;3.75;2.70;;;9.20;99.90;;;9.55;100.00;96794.97;10376605;28;20626;-72
2023/12/12 13:48:28;;;;;;;3.10;2.53;;;9.10;99.90;;;9.50;100.00;96791.34;10374455;28;20301;-69
2023/12/12 13:53:31;;;;;;;2.40;2.20;;;9.10;99.90;;;9.50;100.00;96815.19;10367901;28;20281;-69
2023/12/12 13:58:35;;;;;;;3.40;2.70;;;9.10;99.90;;;9.52;100.00;96825.44;10372926;28;20306;-68
2023/12/12 14:03:40;;;;;;;2.47;2.38;;;9.10;99.90;;;9.50;100.00;96827.06;10369348;28;20221;-70
2023/12/12 14:08:43;;;;;;;2.55;2.35;;;9.10;99.90;;;9.52;100.00;96822.91;10375310;28;20257;-70
2023/12/12 14:13:46;;;;;;;2.40;2.20;;;9.10;99.90;;;9.50;100.00;96810.09;10383590;28;20249;-69
2023/12/12 14:18:51;;;;;;;6.32;3.80;;;9.10;99.90;;;9.66;100.00;96781.00;10364915;28;20691;-69
2023/12/12 14:23:54;;;;;;;4.80;4.05;;;9.10;99.90;;;9.70;100.00;96780.34;10369271;28;20221;-69
2023/12/12 14:28:57;;;;;;;6.25;5.60;;;9.10;99.90;;;9.60;100.00;96770.53;10374457;28;20731;-71
2023/12/12 14:34:02;;;;;;;6.10;5.45;;;9.10;99.90;;;9.66;100.00;96758.91;10370160;28;20233;-70
2023/12/12 14:39:05;;;;;;;7.63;6.88;;;9.10;99.90;;;9.48;100.00;96738.59;10374284;28;20227;-69
2023/12/12 14:44:08;;;;;;;6.03;5.50;;;9.10;99.90;;;9.43;100.00;96736.66;10363535;28;20306;-70
2023/12/12 14:49:13;;;;;;;5.00;4.50;;;9.00;99.90;;;9.75;100.00;96738.00;10363225;28;20240;-71
2023/12/12 14:54:16;;;;;;;4.93;4.45;;;9.30;99.90;;;9.76;100.00;96716.81;10360180;28;20222;-70
2023/12/12 14:59:19;;;;;;;4.82;4.43;;;9.20;99.90;;;9.56;100.00;96717.66;10363922;28;20253;-70
2023/12/12 15:04:24;;;;;;;4.40;4.03;;;9.10;99.90;;;9.44;100.00;96728.19;10369569;28;20230;-71
2023/12/12 15:09:27;;;;;;;5.45;5.05;;;9.00;99.90;;;9.42;100.00;96724.72;10361504;28;20230;-71
2023/12/12 15:14:31;;;;;;;5.50;5.00;;;9.00;99.90;;;9.42;100.00;96707.72;10359582;28;20320;-69
2023/12/12 15:19:36;;;;;;;4.15;3.85;;;8.90;99.90;;;9.40;100.00;96681.28;10356317;28;20230;-70
2023/12/12 15:24:39;;;;;;;5.38;4.97;;;8.90;99.90;;;9.37;100.00;96681.16;10358563;28;20222;-71
2023/12/12 15:29:42;;;;;;;6.47;5.88;;;8.80;99.90;;;9.28;100.00;96673.13;10370056;28;20230;-68
2023/12/12 15:34:46;;;;;;;7.35;6.10;;;8.80;99.90;;;9.27;100.00;96699.44;10375665;28;20673;-71
2023/12/12 15:39:50;;;;;;;15.35;12.13;;;8.70;99.90;;;9.22;100.00;96723.84;10371520;28;20300;-71
2023/12/12 15:44:53;;;;;;;12.45;11.13;;;8.70;99.90;;;9.20;100.00;96693.19;10376178;28;20214;-70
2023/12/12 15:49:58;;;;;;;10.32;9.32;;;8.60;99.90;;;9.20;100.00;96690.63;10382071;28;20234;-70
2023/12/12 15:55:01;;;;;;;48.78;34.55;;;8.60;99.90;;;9.24;100.00;96678.88;10379937;28;20310;-69
2023/12/12 16:00:12;;;;;;;58.15;37.28;;;8.60;99.90;;;9.18;100.00;96682.03;10368346;28;20320;-71
2023/12/12 16:05:17;;;;;;;20.15;17.00;;;8.60;99.90;;;9.17;100.00;96682.84;10371767;28;20225;-70
2023/12/12 16:10:20;;;;;;;14.95;13.52;;;8.60;99.90;;;9.20;100.00;96690.63;10375862;28;20234;-69
2023/12/12 16:15:23;;;;;;;11.75;10.73;;;8.70;99.90;;;9.24;100.00;96684.88;10373427;28;20261;-72
2023/12/12 16:20:28;;;;;;;9.95;9.05;;;8.70;99.90;;;9.27;100.00;96667.94;10365768;28;20234;-71
2023/12/12 16:25:32;;;;;;;8.35;7.65;;;8.70;99.90;;;9.27;100.00;96653.53;10378493;28;20735;-71
2023/12/12 16:30:35;;;;;;;8.30;7.53;;;8.70;99.90;;;9.29;100.00;96656.16;10375551;28;20698;-73
2023/12/12 16:35:40;;;;;;;11.77;10.68;;;8.70;99.90;;;9.20;100.00;96641.31;10368922;28;20230;-70
2023/12/12 16:40:43;;;;;;;9.88;8.95;;;8.60;99.90;;;9.14;100.00;96623.22;10371067;28;20726;-70
2023/12/12 16:45:46;;;;;;;8.95;8.15;;;8.60;99.90;;;9.14;100.00;96611.34;10365984;28;20214;-69
2023/12/12 16:50:50;;;;;;;15.65;14.15;;;8.60;99.90;;;9.09;100.00;96615.38;10370413;28;20229;-69
2023/12/12 16:55:54;;;;;;;14.38;12.70;;;8.50;99.90;;;9.08;100.00;96617.88;10368354;28;20263;-68
2023/12/12 17:00:58;;;;;;;12.00;10.85;;;8.50;99.90;;;9.06;100.00;96602.50;10369309;28;20237;-69
2023/12/12 17:06:03;;;;;;;16.42;14.68;;;8.50;99.90;;;9.06;100.00;96586.34;10372992;28;20623;-73
2023/12/12 17:11:07;;;;;;;16.65;14.27;;;8.50;99.90;;;9.02;100.00;96600.66;10371518;28;20718;-70
2023/12/12 17:16:11;;;;;;;13.50;12.23;;;8.50;99.90;;;8.97;100.00;96600.44;10371224;28;20721;-67
2023/12/12 17:21:15;;;;;;;11.60;10.38;;;8.50;99.90;;;9.07;100.00;96608.47;10369400;28;20262;-66
2023/12/12 17:26:19;;;;;;;10.70;9.77;;;8.50;99.90;;;9.04;100.00;96609.19;10375152;28;20213;-70
2023/12/12 17:31:22;;;;;;;14.60;13.10;;;8.50;99.90;;;8.99;100.00;96606.47;10380553;28;20594;-68
2023/12/12 17:36:26;;;;;;;18.55;16.75;;;8.40;99.90;;;8.98;100.00;96614.91;10371523;28;20234;-69
2023/12/12 17:41:30;;;;;;;20.55;18.35;;;8.40;99.90;;;8.99;100.00;96615.81;10378355;28;20324;-70
2023/12/12 17:46:33;;;;;;;26.30;23.60;;;8.40;99.90;;;8.98;100.00;96624.25;10366829;28;20218;-69
2023/12/12 17:51:37;;;;;;;119.63;72.97;;;8.40;99.90;;;9.01;100.00;96627.81;10368614;28;20284;-68
2023/12/12 17:56:41;;;;;;;75.13;49.50;;;8.40;99.90;;;8.90;100.00;96615.38;10364405;28;20250;-70
2023/12/12 18:01:45;;;;;;;47.38;33.80;;;8.40;99.90;;;8.97;100.00;96631.03;10374643;28;20222;-66
2023/12/12 18:06:50;;;;;;;20.27;17.90;;;8.40;99.90;;;8.93;100.00;96616.41;10363134;28;20309;-66
2023/12/12 18:11:53;;;;;;;17.83;16.23;;;8.40;99.90;;;9.00;100.00;96598.03;10366707;28;20332;-67
2023/12/12 18:16:56;;;;;;;16.88;13.98;;;8.50;99.90;;;8.92;100.00;96599.38;10358078;28;20230;-67
2023/12/12 18:22:01;;;;;;;13.05;11.85;;;8.40;99.90;;;8.86;100.00;96614.41;10365089;28;20982;-66
2023/12/12 18:27:06;;;;;;;12.02;10.93;;;8.40;99.90;;;8.90;100.00;96633.22;10362409;28;20304;-66
2023/12/12 18:32:09;;;;;;;12.05;11.15;;;8.40;99.90;;;8.94;100.00;96633.44;10363809;28;20254;-67
2023/12/12 18:37:14;;;;;;;13.95;12.75;;;8.40;99.90;;;8.97;100.00;96618.28;10363839;28;20266;-66
2023/12/12 18:42:18;;;;;;;31.77;24.85;;;8.50;99.90;;;8.99;100.00;96614.13;10346904;28;20230;-68
2023/12/12 18:47:22;;;;;;;25.05;20.63;;;8.50;99.90;;;8.94;100.00;96623.25;10358477;28;20230;-67
2023/12/12 18:52:26;;;;;;;26.13;19.77;;;8.50;99.90;;;9.04;100.00;96596.47;10346094;28;20231;-65
2023/12/12 18:57:29;;;;;;;22.70;19.02;;;8.50;99.90;;;9.03;100.00;96605.78;10361952;28;20253;-65
2023/12/12 19:02:33;;;;;;;23.17;18.80;;;8.50;99.90;;;8.95;100.00;96606.28;10348974;28;20651;-66
2023/12/12 19:07:38;;;;;;;19.77;17.80;;;8.50;99.90;;;8.92;100.00;96599.38;10358264;28;20234;-69
2023/12/12 19:12:42;;;;;;;23.40;20.95;;;8.50;99.90;;;8.92;100.00;96603.59;10358642;28;20225;-68
2023/12/12 19:17:52;;;;;;;17.17;14.05;;;8.50;99.90;;;8.95;100.00;96614.78;10354003;28;20330;-69
2023/12/12 19:22:57;;;;;;;13.02;11.75;;;8.50;99.90;;;9.00;100.00;96618.41;10350930;28;20644;-68
2023/12/12 19:28:00;;;;;;;21.60;19.30;;;8.50;99.90;;;9.03;100.00;96615.13;10354464;28;20235;-66
2023/12/12 19:33:06;;;;;;;25.50;22.80;;;8.50;99.90;;;9.02;100.00;96626.13;10352056;28;20225;-67
2023/12/12 19:38:10;;;;;;;26.42;22.88;;;8.50;99.90;;;9.01;100.00;96607.44;10347831;28;20741;-67
2023/12/12 19:43:13;;;;;;;29.38;24.25;;;8.50;99.90;;;9.03;100.00;96587.94;10355157;28;20606;-66
2023/12/12 19:48:16;;;;;;;23.25;20.80;;;8.50;99.90;;;9.00;100.00;96585.28;10354100;28;20237;-67
2023/12/12 19:53:21;;;;;;;22.10;19.60;;;8.50;99.90;;;9.01;100.00;96576.84;10350235;28;20221;-66
2023/12/12 19:58:24;;;;;;;21.45;19.23;;;8.50;99.90;;;9.03;100.00;96582.84;10365908;28;20233;-67
2023/12/12 20:03:28;;;;;;;19.70;17.70;;;8.50;99.90;;;9.02;100.00;96560.72;10365245;28;20234;-66
2023/12/12 20:08:33;;;;;;;21.92;19.85;;;8.50;99.90;;;9.03;100.00;96547.16;10350211;28;20226;-66
2023/12/12 20:13:37;;;;;;;60.80;35.00;;;8.50;99.90;;;9.07;100.00;96560.03;10354939;28;20320;-66
2023/12/12 20:18:41;;;;;;;19.60;17.67;;;8.50;99.90;;;8.97;100.00;96559.66;10345861;28;20230;-66
2023/12/12 20:23:45;;;;;;;19.35;17.55;;;8.50;99.90;;;9.07;100.00;96568.59;10360184;28;20277;-68
2023/12/12 20:28:49;;;;;;;19.25;17.35;;;8.60;99.90;;;9.22;100.00;96551.38;10355611;28;20750;-65
2023/12/12 20:33:53;;;;;;;24.88;22.38;;;8.70;99.90;;;9.30;100.00;96540.59;10357543;28;20218;-67
2023/12/12 20:38:58;;;;;;;15.55;14.05;;;8.80;99.90;;;9.58;100.00;96542.56;10354355;28;20850;-64
2023/12/12 20:44:01;;;;;;;13.65;11.32;;;9.00;99.90;;;9.92;100.00;96537.94;10361593;28;20286;-66
2023/12/12 20:49:04;;;;;;;9.90;8.80;;;9.40;99.90;;;9.95;100.00;96526.13;10360670;28;21598;-67
2023/12/12 20:54:10;;;;;;;9.43;8.52;;;9.40;99.90;;;9.83;100.00;96524.84;10355795;28;21026;-67
2023/12/12 20:59:14;;;;;;;9.48;8.57;;;9.30;99.90;;;9.72;100.00;96531.22;10357186;28;20250;-67
2023/12/12 21:04:17;;;;;;;8.95;8.05;;;9.30;99.90;;;9.89;100.00;96522.53;10358277;28;20241;-66
2023/12/12 21:09:22;;;;;;;9.85;8.93;;;9.30;99.90;;;9.91;100.00;96548.97;10352384;28;20238;-67